Time,TemperatureF,DewpointF,PressureIn,WindDirection,WindDirectionDegrees,WindSpeedMPH,WindSpeedGustMPH,Humidity,HourlyPrecipIn,Conditions,Clouds,dailyrainin,SoftwareType,DateUTC
2013-03-10 00:00:00,63.6,44.6,29.89,SE,134,12.0,20.0,50,0.00,,SKC,0.00,VWS V14.01,2013-03-10 06:00:00,
2013-03-10 00:01:00,64.0,42.8,29.87,SSE,166,4.0,17.0,46,0.00,,SKC,0.00,VWS V14.01,2013-03-10 06:01:00,
2013-03-10 00:06:00,64.0,43.4,29.88,SE,144,7.0,10.0,47,0.00,,SKC,0.00,VWS V14.01,2013-03-10 06:06:00,
2013-03-10 00:11:00,63.9,43.3,29.88,SE,142,7.0,12.0,47,0.00,,SKC,0.00,VWS V14.01,2013-03-10 06:11:00,
2013-03-10 00:17:00,63.9,43.3,29.88,SSE,166,5.0,16.0,47,0.00,,SKC,0.00,VWS V14.01,2013-03-10 06:17:00,
2013-03-10 00:22:00,63.9,43.3,29.88,SE,138,12.0,16.0,47,0.00,,SKC,0.00,VWS V14.01,2013-03-10 06:22:00,
2013-03-10 00:27:00,63.8,43.8,29.88,SSE,165,5.0,16.0,48,0.00,,SKC,0.00,VWS V14.01,2013-03-10 06:27:00,
2013-03-10 00:30:00,62.9,45.5,29.88,SSE,160,12.0,19.0,53,0.00,,SKC,0.00,VWS V14.01,2013-03-10 06:30:00,
2013-03-10 00:32:00,63.8,43.8,29.88,SE,130,12.0,16.0,48,0.00,,SKC,0.00,VWS V14.01,2013-03-10 06:32:00,
2013-03-10 00:37:00,63.9,43.8,29.88,SSE,151,11.0,14.0,48,0.00,,SKC,0.00,VWS V14.01,2013-03-10 06:37:00,
2013-03-10 00:42:00,63.9,44.4,29.89,SE,136,10.0,16.0,49,0.00,,SKC,0.00,VWS V14.01,2013-03-10 06:42:00,
2013-03-10 00:47:00,63.9,44.4,29.89,SSE,150,4.0,16.0,49,0.00,,SKC,0.00,VWS V14.01,2013-03-10 06:47:00,
2013-03-10 00:52:00,63.8,44.3,29.89,SE,137,7.0,16.0,49,0.00,,SKC,0.00,VWS V14.01,2013-03-10 06:52:00,
2013-03-10 00:57:00,63.7,44.7,29.89,SSE,164,5.0,16.0,50,0.00,,SKC,0.00,VWS V14.01,2013-03-10 06:57:00,
2013-03-10 00:58:00,62.4,46.0,29.87,SSE,154,6.0,18.0,55,0.00,,SKC,0.00,VWS V14.01,2013-03-10 06:58:00,
2013-03-10 00:59:00,62.4,46.0,29.86,ESE,115,3.0,18.0,55,0.00,,SKC,0.00,VWS V14.01,2013-03-10 06:59:00,
2013-03-10 01:02:00,63.6,44.6,29.89,SE,134,12.0,20.0,50,0.00,,SKC,0.00,VWS V14.01,2013-03-10 07:02:00,
2013-03-10 01:07:00,63.6,45.2,29.88,SE,143,9.0,15.0,51,0.00,,SKC,0.00,VWS V14.01,2013-03-10 07:07:00,
2013-03-10 01:12:00,63.6,45.2,29.89,SSE,153,7.0,19.0,51,0.00,,SKC,0.00,VWS V14.01,2013-03-10 07:12:00,
2013-03-10 01:17:00,63.5,45.1,29.89,South,175,12.0,19.0,51,0.00,,SKC,0.00,VWS V14.01,2013-03-10 07:17:00,
2013-03-10 01:22:00,63.2,45.3,29.88,SE,134,6.0,19.0,52,0.00,,SKC,0.00,VWS V14.01,2013-03-10 07:22:00,
2013-03-10 01:28:00,63.0,45.6,29.88,SSE,158,4.0,19.0,53,0.00,,SKC,0.00,VWS V14.01,2013-03-10 07:28:00,
2013-03-10 01:33:00,62.9,45.5,29.88,SSE,155,6.0,12.0,53,0.00,,SKC,0.00,VWS V14.01,2013-03-10 07:33:00,
2013-03-10 01:38:00,62.8,45.9,29.88,SE,144,10.0,14.0,54,0.00,,SKC,0.00,VWS V14.01,2013-03-10 07:38:00,
2013-03-10 01:43:00,62.6,45.7,29.88,SE,142,9.0,14.0,54,0.00,,SKC,0.00,VWS V14.01,2013-03-10 07:43:00,
2013-03-10 01:48:00,62.7,45.8,29.88,SSE,165,14.0,18.0,54,0.00,,SKC,0.00,VWS V14.01,2013-03-10 07:48:00,
2013-03-10 01:53:00,62.6,45.7,29.87,ESE,117,13.0,18.0,54,0.00,,SKC,0.00,VWS V14.01,2013-03-10 07:53:00,
2013-03-10 01:58:00,62.5,46.1,29.87,SE,136,4.0,18.0,55,0.00,,SKC,0.00,VWS V14.01,2013-03-10 07:58:00,
2013-03-10 03:00:00,62.4,46.0,29.86,SSE,149,11.0,18.0,55,0.00,,SKC,0.00,VWS V14.01,2013-03-10 08:00:00,
2013-03-10 03:03:00,62.4,45.5,29.86,SE,134,10.0,13.0,54,0.00,,SKC,0.00,VWS V14.01,2013-03-10 08:03:00,
2013-03-10 03:08:00,62.5,46.1,29.86,SE,124,9.0,18.0,55,0.00,,SKC,0.00,VWS V14.01,2013-03-10 08:08:00,
2013-03-10 03:13:00,62.2,45.8,29.86,SSE,150,4.0,18.0,55,0.00,,SKC,0.00,VWS V14.01,2013-03-10 08:13:00,
2013-03-10 03:18:00,62.1,45.8,29.86,SE,145,2.0,18.0,55,0.00,,SKC,0.00,VWS V14.01,2013-03-10 08:18:00,
2013-03-10 03:23:00,62.0,46.1,29.85,SSE,151,12.0,18.0,56,0.00,,SKC,0.00,VWS V14.01,2013-03-10 08:23:00,
2013-03-10 03:29:00,62.0,46.1,29.85,SE,126,9.0,18.0,56,0.00,,SKC,0.00,VWS V14.01,2013-03-10 08:29:00,
2013-03-10 03:30:00,61.9,46.0,29.85,South,179,11.0,18.0,56,0.00,,SKC,0.00,VWS V14.01,2013-03-10 08:30:00,
2013-03-10 03:34:00,61.9,46.0,29.85,SSE,159,12.0,14.0,56,0.00,,SKC,0.00,VWS V14.01,2013-03-10 08:34:00,
2013-03-10 03:39:00,61.8,46.4,29.85,SSE,148,9.0,15.0,57,0.00,,SKC,0.00,VWS V14.01,2013-03-10 08:39:00,
2013-03-10 03:44:00,61.8,46.9,29.85,SSE,153,10.0,16.0,58,0.00,,SKC,0.00,VWS V14.01,2013-03-10 08:44:00,
2013-03-10 03:49:00,61.8,47.3,29.84,SSE,163,5.0,18.0,59,0.00,,SKC,0.00,VWS V14.01,2013-03-10 08:49:00,
2013-03-10 03:54:00,61.8,47.3,29.84,SSE,149,4.0,18.0,59,0.00,,SKC,0.00,VWS V14.01,2013-03-10 08:54:00,
2013-03-10 03:59:00,61.7,47.7,29.84,SSE,148,10.0,18.0,60,0.00,,SKC,0.00,VWS V14.01,2013-03-10 08:59:00,
2013-03-10 04:00:00,61.6,47.6,29.84,SE,129,13.0,18.0,60,0.00,,SKC,0.00,VWS V14.01,2013-03-10 09:00:00,
2013-03-10 04:04:00,61.6,47.6,29.84,SE,141,6.0,13.0,60,0.00,,SKC,0.00,VWS V14.01,2013-03-10 09:04:00,
2013-03-10 04:09:00,61.5,47.5,29.84,SSE,164,6.0,17.0,60,0.00,,SKC,0.00,VWS V14.01,2013-03-10 09:09:00,
2013-03-10 04:14:00,61.4,47.8,29.83,SSE,154,9.0,17.0,61,0.00,,SKC,0.00,VWS V14.01,2013-03-10 09:14:00,
2013-03-10 04:19:00,61.4,47.8,29.83,SE,144,12.0,17.0,61,0.00,,SKC,0.00,VWS V14.01,2013-03-10 09:19:00,
2013-03-10 04:24:00,61.5,47.9,29.83,SSE,148,14.0,19.0,61,0.00,,SKC,0.00,VWS V14.01,2013-03-10 09:24:00,
2013-03-10 04:29:00,61.4,48.3,29.83,SE,130,10.0,19.0,62,0.00,,SKC,0.00,VWS V14.01,2013-03-10 09:29:00,
2013-03-10 04:30:00,61.3,48.2,29.82,South,183,5.0,19.0,62,0.00,,SKC,0.00,VWS V14.01,2013-03-10 09:30:00,
2013-03-10 04:34:00,61.3,48.2,29.82,SE,133,13.0,20.0,62,0.00,,SKC,0.00,VWS V14.01,2013-03-10 09:34:00,
2013-03-10 04:39:00,61.2,48.1,29.82,ESE,120,12.0,20.0,62,0.00,,SKC,0.00,VWS V14.01,2013-03-10 09:39:00,
2013-03-10 04:44:00,61.2,48.5,29.81,SSE,163,8.0,20.0,63,0.00,,SKC,0.00,VWS V14.01,2013-03-10 09:44:00,
2013-03-10 04:49:00,61.1,48.4,29.82,SE,125,11.0,20.0,63,0.00,,SKC,0.00,VWS V14.01,2013-03-10 09:49:00,
2013-03-10 04:54:00,60.8,48.6,29.82,South,183,10.0,20.0,64,0.00,,SKC,0.00,VWS V14.01,2013-03-10 09:54:00,
2013-03-10 04:59:00,60.7,48.5,29.82,SSE,155,14.0,20.0,64,0.00,,SKC,0.00,VWS V14.01,2013-03-10 09:59:00,
2013-03-10 05:00:00,60.6,48.4,29.82,ESE,112,5.0,20.0,64,0.00,,SKC,0.00,VWS V14.01,2013-03-10 10:00:00,
2013-03-10 05:04:00,60.5,48.7,29.82,SE,141,15.0,15.0,65,0.00,,SKC,0.00,VWS V14.01,2013-03-10 10:04:00,
2013-03-10 05:09:00,60.4,48.6,29.82,SE,140,11.0,17.0,65,0.00,,SKC,0.00,VWS V14.01,2013-03-10 10:09:00,
2013-03-10 05:15:00,60.3,48.9,29.81,SE,129,11.0,17.0,66,0.00,,SKC,0.00,VWS V14.01,2013-03-10 10:15:00,
2013-03-10 05:20:00,60.2,48.8,29.81,SSE,150,10.0,17.0,66,0.00,,SKC,0.00,VWS V14.01,2013-03-10 10:20:00,
2013-03-10 05:25:00,60.2,48.8,29.82,SE,140,6.0,17.0,66,0.00,,SKC,0.00,VWS V14.01,2013-03-10 10:25:00,
2013-03-10 05:30:00,60.3,49.3,29.82,SSE,167,11.0,17.0,67,0.00,,SKC,0.00,VWS V14.01,2013-03-10 10:30:00,
2013-03-10 05:35:00,60.3,49.7,29.82,SE,145,6.0,13.0,68,0.00,,SKC,0.00,VWS V14.01,2013-03-10 10:35:00,
2013-03-10 05:40:00,60.3,49.7,29.82,SE,140,10.0,13.0,68,0.00,,SKC,0.00,VWS V14.01,2013-03-10 10:40:00,
2013-03-10 05:45:00,60.3,49.7,29.82,SE,134,16.0,16.0,68,0.00,,SKC,0.00,VWS V14.01,2013-03-10 10:45:00,
2013-03-10 05:50:00,60.2,50.0,29.82,SSE,161,9.0,16.0,69,0.00,,SKC,0.00,VWS V14.01,2013-03-10 10:50:00,
2013-03-10 05:55:00,60.1,49.9,29.82,South,169,3.0,16.0,69,0.00,,SKC,0.00,VWS V14.01,2013-03-10 10:55:00,
2013-03-10 06:00:00,60.0,50.2,29.82,SE,136,4.0,17.0,70,0.00,,SKC,0.00,VWS V14.01,2013-03-10 11:00:00,
2013-03-10 06:05:00,60.0,50.2,29.83,South,184,4.0,12.0,70,0.00,,SKC,0.00,VWS V14.01,2013-03-10 11:05:00,
2013-03-10 06:10:00,60.0,50.6,29.84,SE,141,14.0,15.0,71,0.00,,SKC,0.00,VWS V14.01,2013-03-10 11:10:00,
2013-03-10 06:15:00,60.2,50.8,29.83,SSE,164,10.0,15.0,71,0.00,,SKC,0.00,VWS V14.01,2013-03-10 11:15:00,
2013-03-10 06:20:00,60.2,50.8,29.83,SE,144,2.0,16.0,71,0.00,,SKC,0.00,VWS V14.01,2013-03-10 11:20:00,
2013-03-10 06:25:00,60.2,51.2,29.83,SE,143,10.0,20.0,72,0.00,,SKC,0.00,VWS V14.01,2013-03-10 11:25:00,
2013-03-10 06:30:00,60.2,51.2,29.83,SSE,148,5.0,20.0,72,0.00,,SKC,0.00,VWS V14.01,2013-03-10 11:30:00,
2013-03-10 06:35:00,60.1,51.1,29.83,SE,139,15.0,18.0,72,0.00,,SKC,0.00,VWS V14.01,2013-03-10 11:35:00,
2013-03-10 06:40:00,60.1,51.1,29.83,SSE,152,5.0,18.0,72,0.00,,SKC,0.00,VWS V14.01,2013-03-10 11:40:00,
2013-03-10 06:45:00,60.0,51.0,29.83,SSE,152,8.0,18.0,72,0.00,,SKC,0.00,VWS V14.01,2013-03-10 11:45:00,
2013-03-10 06:51:00,59.9,50.9,29.83,SSE,157,6.0,18.0,72,0.00,,SKC,0.00,VWS V14.01,2013-03-10 11:51:00,
2013-03-10 06:56:00,59.8,50.8,29.83,SSE,147,10.0,18.0,72,0.00,,SKC,0.00,VWS V14.01,2013-03-10 11:56:00,
2013-03-10 07:00:00,59.5,50.8,29.82,SE,143,9.0,18.0,73,0.00,,SKC,0.00,VWS V14.01,2013-03-10 12:00:00,
2013-03-10 07:01:00,59.5,50.8,29.82,SE,134,6.0,18.0,73,0.00,,SKC,0.00,VWS V14.01,2013-03-10 12:01:00,
2013-03-10 07:06:00,59.5,50.8,29.82,SSE,161,14.0,16.0,73,0.00,,SKC,0.00,VWS V14.01,2013-03-10 12:06:00,
2013-03-10 07:11:00,59.3,50.7,29.81,SSE,160,5.0,16.0,73,0.00,,SKC,0.00,VWS V14.01,2013-03-10 12:11:00,
2013-03-10 07:16:00,59.3,50.7,29.81,SE,126,10.0,18.0,73,0.00,,SKC,0.00,VWS V14.01,2013-03-10 12:16:00,
2013-03-10 07:21:00,59.1,50.5,29.81,SE,133,12.0,18.0,73,0.00,,SKC,0.00,VWS V14.01,2013-03-10 12:21:00,
2013-03-10 07:26:00,59.2,50.6,29.80,SE,134,9.0,19.0,73,0.00,,SKC,0.00,VWS V14.01,2013-03-10 12:26:00,
2013-03-10 07:30:00,59.0,50.4,29.80,SE,144,8.0,19.0,73,0.00,,SKC,0.00,VWS V14.01,2013-03-10 12:30:00,
2013-03-10 07:31:00,59.0,50.4,29.80,SSE,150,14.0,19.0,73,0.00,,SKC,0.00,VWS V14.01,2013-03-10 12:31:00,
2013-03-10 07:36:00,59.0,50.0,29.79,ESE,115,9.0,17.0,72,0.00,,SKC,0.00,VWS V14.01,2013-03-10 12:36:00,
2013-03-10 08:00:00,59.0,50.0,29.80,SE,135,10.0,23.0,72,0.00,,SKC,0.00,VWS V14.01,2013-03-10 13:00:00,
2013-03-10 08:30:00,59.0,50.0,29.81,SE,135,9.0,22.0,72,0.00,,SKC,0.00,VWS V14.01,2013-03-10 13:30:00,
2013-03-10 09:00:00,59.9,50.5,29.80,SE,135,9.0,19.0,71,0.00,,SKC,0.00,VWS V14.01,2013-03-10 14:00:00,
2013-03-10 09:30:00,61.0,51.9,29.81,SE,135,11.0,22.0,72,0.00,,SKC,0.00,VWS V14.01,2013-03-10 14:30:00,
2013-03-10 10:00:00,61.6,53.2,29.81,SE,135,12.0,28.0,74,0.00,,SKC,0.00,VWS V14.01,2013-03-10 15:00:00,
2013-03-10 10:30:00,61.9,53.5,29.77,SE,135,12.0,25.0,74,0.00,,SKC,0.00,VWS V14.01,2013-03-10 15:30:00,
2013-03-10 11:00:00,62.8,53.7,29.76,SE,135,14.0,26.0,72,0.00,,SKC,0.00,VWS V14.01,2013-03-10 16:00:00,
2013-03-10 11:30:00,64.1,54.5,29.75,SE,135,16.0,31.0,71,0.00,,SKC,0.00,VWS V14.01,2013-03-10 16:30:00,
2013-03-10 12:00:00,64.8,55.6,29.76,SE,135,16.0,29.0,72,0.00,,SKC,0.00,VWS V14.01,2013-03-10 17:00:00,
2013-03-10 12:30:00,64.7,55.9,29.75,SSE,158,14.0,28.0,73,0.00,,SKC,0.00,VWS V14.01,2013-03-10 17:30:00,
2013-03-10 13:00:00,64.7,55.9,29.73,SSE,158,12.0,28.0,73,0.00,,SKC,0.00,VWS V14.01,2013-03-10 18:00:00,
2013-03-10 13:30:00,62.8,56.9,29.73,SSE,158,11.0,24.0,81,0.01,,SKC,0.01,VWS V14.01,2013-03-10 18:30:00,
2013-03-10 14:00:00,62.9,56.6,29.71,SE,135,11.0,22.0,80,0.01,,SKC,0.01,VWS V14.01,2013-03-10 19:00:00,
2013-03-10 14:30:00,63.7,57.4,29.69,SE,135,13.0,27.0,80,0.01,,SKC,0.01,VWS V14.01,2013-03-10 19:30:00,
2013-03-10 15:00:00,60.6,54.8,29.73,SE,135,9.0,26.0,81,0.04,,SKC,0.05,VWS V14.01,2013-03-10 20:00:00,
2013-03-10 15:52:00,52.3,50.0,29.76,WNW,289,0.0,9.0,92,0.26,,SKC,0.27,VWS V14.01,2013-03-10 20:52:00,
2013-03-10 15:58:00,52.4,50.4,29.80,WNW,288,1.0,9.0,93,0.28,,SKC,0.29,VWS V14.01,2013-03-10 20:58:00,
2013-03-10 16:03:00,52.3,50.0,29.78,West,275,2.0,5.0,92,0.25,,SKC,0.30,VWS V14.01,2013-03-10 21:03:00,
2013-03-10 16:08:00,52.2,50.2,29.75,North,350,3.0,6.0,93,0.27,,SKC,0.32,VWS V14.01,2013-03-10 21:08:00,
2013-03-10 16:13:00,52.1,50.1,29.76,NNW,342,2.0,6.0,93,0.29,,SKC,0.34,VWS V14.01,2013-03-10 21:13:00,
2013-03-10 16:18:00,52.1,50.1,29.78,NNW,342,0.0,6.0,93,0.30,,SKC,0.35,VWS V14.01,2013-03-10 21:18:00,
2013-03-10 16:23:00,52.1,50.1,29.76,NNW,348,0.0,6.0,93,0.32,,SKC,0.37,VWS V14.01,2013-03-10 21:23:00,
2013-03-10 16:28:00,52.0,50.0,29.75,North,349,3.0,6.0,93,0.34,,SKC,0.39,VWS V14.01,2013-03-10 21:28:00,
2013-03-10 16:33:00,52.0,50.0,29.76,North,349,0.0,0.0,93,0.11,,SKC,0.41,VWS V14.01,2013-03-10 21:33:00,
2013-03-10 16:38:00,52.1,50.4,29.75,North,349,2.0,3.0,94,0.13,,SKC,0.43,VWS V14.01,2013-03-10 21:38:00,
2013-03-10 16:43:00,52.1,50.1,29.74,North,350,3.0,4.0,93,0.15,,SKC,0.45,VWS V14.01,2013-03-10 21:43:00,
2013-03-10 16:48:00,52.1,50.4,29.75,North,350,0.0,5.0,94,0.17,,SKC,0.47,VWS V14.01,2013-03-10 21:48:00,
2013-03-10 16:53:00,52.0,50.3,29.76,North,349,0.0,5.0,94,0.19,,SKC,0.49,VWS V14.01,2013-03-10 21:53:00,
2013-03-10 16:59:00,52.0,50.3,29.76,North,349,0.0,5.0,94,0.20,,SKC,0.50,VWS V14.01,2013-03-10 21:59:00,
2013-03-10 17:04:00,52.0,50.3,29.78,North,351,3.0,4.0,94,0.22,,SKC,0.52,VWS V14.01,2013-03-10 22:04:00,
2013-03-10 17:09:00,52.0,50.3,29.74,NE,42,4.0,4.0,94,0.24,,SKC,0.54,VWS V14.01,2013-03-10 22:09:00,
2013-03-10 17:14:00,52.0,50.3,29.73,NE,46,1.0,6.0,94,0.26,,SKC,0.56,VWS V14.01,2013-03-10 22:14:00,
2013-03-10 17:19:00,52.2,50.5,29.73,NE,46,2.0,6.0,94,0.27,,SKC,0.57,VWS V14.01,2013-03-10 22:19:00,
2013-03-10 17:24:00,52.2,50.5,29.73,ENE,72,2.0,6.0,94,0.29,,SKC,0.59,VWS V14.01,2013-03-10 22:24:00,
2013-03-10 17:29:00,52.2,50.5,29.73,ENE,71,1.0,6.0,94,0.31,,SKC,0.61,VWS V14.01,2013-03-10 22:29:00,
2013-03-10 17:34:00,52.2,50.5,29.72,East,96,3.0,5.0,94,0.21,,SKC,0.62,VWS V14.01,2013-03-10 22:34:00,
2013-03-10 17:39:00,52.2,50.5,29.73,East,100,5.0,6.0,94,0.23,,SKC,0.64,VWS V14.01,2013-03-10 22:39:00,
2013-03-10 17:44:00,52.3,50.6,29.74,East,97,4.0,6.0,94,0.24,,SKC,0.65,VWS V14.01,2013-03-10 22:44:00,
2013-03-10 17:49:00,52.3,50.6,29.72,East,95,6.0,9.0,94,0.26,,SKC,0.67,VWS V14.01,2013-03-10 22:49:00,
2013-03-10 17:54:00,52.2,50.5,29.71,East,86,5.0,9.0,94,0.27,,SKC,0.68,VWS V14.01,2013-03-10 22:54:00,
2013-03-10 17:59:00,52.2,50.5,29.73,East,90,4.0,9.0,94,0.28,,SKC,0.69,VWS V14.01,2013-03-10 22:59:00,
2013-03-10 18:04:00,52.2,50.5,29.73,East,94,4.0,6.0,94,0.20,,SKC,0.71,VWS V14.01,2013-03-10 23:04:00,
2013-03-10 18:09:00,52.1,50.4,29.73,East,101,5.0,7.0,94,0.21,,SKC,0.72,VWS V14.01,2013-03-10 23:09:00,
2013-03-10 18:14:00,52.1,50.4,29.74,ESE,102,4.0,7.0,94,0.22,,SKC,0.73,VWS V14.01,2013-03-10 23:14:00,
2013-03-10 18:19:00,52.1,50.4,29.74,ESE,102,2.0,7.0,94,0.24,,SKC,0.75,VWS V14.01,2013-03-10 23:19:00,
2013-03-10 18:24:00,52.1,50.4,29.75,ESE,102,0.0,7.0,94,0.25,,SKC,0.76,VWS V14.01,2013-03-10 23:24:00,
2013-03-10 18:29:00,52.1,50.7,29.75,ESE,102,3.0,7.0,95,0.26,,SKC,0.77,VWS V14.01,2013-03-10 23:29:00,
2013-03-10 18:35:00,52.1,50.7,29.76,ESE,102,0.0,4.0,95,0.17,,SKC,0.79,VWS V14.01,2013-03-10 23:35:00,
2013-03-10 18:40:00,52.1,50.7,29.75,ESE,102,0.0,4.0,95,0.17,,SKC,0.79,VWS V14.01,2013-03-10 23:40:00,
2013-03-10 18:45:00,52.1,50.7,29.75,ESE,102,0.0,4.0,95,0.19,,SKC,0.81,VWS V14.01,2013-03-10 23:45:00,
2013-03-10 18:50:00,52.1,50.7,29.75,ESE,102,0.0,4.0,95,0.20,,SKC,0.82,VWS V14.01,2013-03-10 23:50:00,
2013-03-10 18:55:00,52.1,50.7,29.76,ESE,102,2.0,4.0,95,0.21,,SKC,0.83,VWS V14.01,2013-03-10 23:55:00,
2013-03-10 19:00:00,52.2,50.8,29.77,ESE,108,4.0,4.0,95,0.22,,SKC,0.84,VWS V14.01,2013-03-11 00:00:00,
2013-03-10 19:05:00,52.2,50.8,29.75,SE,140,2.0,5.0,95,0.15,,SKC,0.85,VWS V14.01,2013-03-11 00:05:00,
2013-03-10 19:10:00,52.1,50.7,29.75,SE,140,3.0,5.0,95,0.17,,SKC,0.87,VWS V14.01,2013-03-11 00:10:00,
2013-03-10 19:15:00,52.2,50.8,29.74,SE,140,0.0,5.0,95,0.18,,SKC,0.88,VWS V14.01,2013-03-11 00:15:00,
2013-03-10 19:20:00,52.2,50.8,29.74,SE,140,0.0,5.0,95,0.19,,SKC,0.89,VWS V14.01,2013-03-11 00:20:00,
2013-03-10 19:25:00,52.2,50.8,29.74,SE,140,0.0,5.0,95,0.20,,SKC,0.90,VWS V14.01,2013-03-11 00:25:00,
2013-03-10 19:30:00,52.2,50.8,29.76,SE,143,2.0,5.0,95,0.21,,SKC,0.91,VWS V14.01,2013-03-11 00:30:00,
2013-03-10 19:36:00,52.2,50.8,29.75,SSE,153,2.0,4.0,95,0.14,,SKC,0.92,VWS V14.01,2013-03-11 00:36:00,
2013-03-10 19:41:00,52.3,50.9,29.75,SSE,153,1.0,4.0,95,0.15,,SKC,0.93,VWS V14.01,2013-03-11 00:41:00,
2013-03-10 19:46:00,52.3,50.9,29.75,SSE,153,2.0,4.0,95,0.16,,SKC,0.94,VWS V14.01,2013-03-11 00:46:00,
2013-03-10 19:51:00,52.2,50.8,29.75,SSE,153,1.0,4.0,95,0.17,,SKC,0.95,VWS V14.01,2013-03-11 00:51:00,
2013-03-10 19:56:00,52.2,50.8,29.75,SSE,152,3.0,5.0,95,0.18,,SKC,0.96,VWS V14.01,2013-03-11 00:56:00,
2013-03-10 20:01:00,52.2,50.8,29.76,SSE,152,4.0,5.0,95,0.19,,SKC,0.97,VWS V14.01,2013-03-11 01:01:00,
2013-03-10 20:07:00,52.2,50.8,29.77,SSE,158,2.0,5.0,95,0.12,,SKC,0.97,VWS V14.01,2013-03-11 01:07:00,
2013-03-10 20:12:00,52.4,51.0,29.78,South,175,5.0,7.0,95,0.13,,SKC,0.98,VWS V14.01,2013-03-11 01:12:00,
2013-03-10 20:17:00,52.4,51.0,29.77,South,186,3.0,7.0,95,0.14,,SKC,0.99,VWS V14.01,2013-03-11 01:17:00,
2013-03-10 20:22:00,52.4,51.0,29.77,South,180,1.0,7.0,95,0.14,,SKC,0.99,VWS V14.01,2013-03-11 01:22:00,
2013-03-10 20:27:00,52.4,51.0,29.77,South,182,2.0,7.0,95,0.14,,SKC,0.99,VWS V14.01,2013-03-11 01:27:00,
2013-03-10 20:32:00,52.4,51.0,29.76,SSE,164,2.0,7.0,95,0.15,,SKC,1.00,VWS V14.01,2013-03-11 01:32:00,
2013-03-10 20:37:00,52.4,51.0,29.76,SSE,167,4.0,6.0,95,0.08,,SKC,1.00,VWS V14.01,2013-03-11 01:37:00,
2013-03-10 20:42:00,52.5,51.1,29.76,SSE,167,5.0,6.0,95,0.09,,SKC,1.01,VWS V14.01,2013-03-11 01:42:00,
2013-03-10 20:47:00,52.5,51.1,29.76,South,170,4.0,6.0,95,0.09,,SKC,1.01,VWS V14.01,2013-03-11 01:47:00,
2013-03-10 20:52:00,52.5,51.1,29.76,South,171,3.0,6.0,95,0.09,,SKC,1.01,VWS V14.01,2013-03-11 01:52:00,
2013-03-10 20:58:00,52.5,51.1,29.77,South,175,2.0,6.0,95,0.09,,SKC,1.01,VWS V14.01,2013-03-11 01:58:00,
2013-03-10 21:03:00,52.5,51.1,29.77,SSW,197,1.0,2.0,95,0.04,,SKC,1.01,VWS V14.01,2013-03-11 02:03:00,
2013-03-10 21:08:00,52.5,51.1,29.75,South,190,2.0,5.0,95,0.04,,SKC,1.01,VWS V14.01,2013-03-11 02:08:00,
2013-03-10 21:13:00,52.5,51.1,29.76,SSW,194,2.0,6.0,95,0.04,,SKC,1.01,VWS V14.01,2013-03-11 02:13:00,
2013-03-10 21:18:00,52.5,51.1,29.76,South,180,0.0,6.0,95,0.04,,SKC,1.01,VWS V14.01,2013-03-11 02:18:00,
2013-03-10 21:23:00,52.6,51.2,29.77,South,180,3.0,6.0,95,0.04,,SKC,1.01,VWS V14.01,2013-03-11 02:23:00,
2013-03-10 21:28:00,52.6,51.2,29.77,South,179,4.0,6.0,95,0.04,,SKC,1.01,VWS V14.01,2013-03-11 02:28:00,
2013-03-10 21:33:00,52.6,51.2,29.78,South,171,3.0,5.0,95,0.01,,SKC,1.01,VWS V14.01,2013-03-11 02:33:00,
2013-03-10 21:38:00,52.6,51.2,29.79,SSE,167,2.0,8.0,95,0.01,,SKC,1.01,VWS V14.01,2013-03-11 02:38:00,
2013-03-10 21:43:00,52.7,51.3,29.78,South,171,3.0,11.0,95,0.01,,SKC,1.01,VWS V14.01,2013-03-11 02:43:00,
2013-03-10 21:48:00,52.7,51.3,29.77,South,175,4.0,11.0,95,0.01,,SKC,1.01,VWS V14.01,2013-03-11 02:48:00,
2013-03-10 21:53:00,52.7,51.3,29.78,SSE,164,5.0,11.0,95,0.01,,SKC,1.01,VWS V14.01,2013-03-11 02:53:00,
2013-03-10 21:58:00,52.7,51.3,29.78,South,182,0.0,11.0,95,0.01,,SKC,1.01,VWS V14.01,2013-03-11 02:58:00,
2013-03-10 22:03:00,52.7,51.3,29.78,SSE,157,2.0,5.0,95,0.00,,SKC,1.01,VWS V14.01,2013-03-11 03:03:00,
2013-03-10 22:08:00,52.7,51.3,29.78,South,184,2.0,11.0,95,0.00,,SKC,1.01,VWS V14.01,2013-03-11 03:08:00,
2013-03-10 22:13:00,52.8,51.4,29.79,SSW,195,0.0,11.0,95,0.00,,SKC,1.01,VWS V14.01,2013-03-11 03:13:00,
2013-03-10 22:19:00,52.8,51.4,29.78,SW,214,5.0,11.0,95,0.00,,SKC,1.01,VWS V14.01,2013-03-11 03:19:00,
2013-03-10 22:24:00,52.8,51.4,29.77,SW,218,3.0,11.0,95,0.00,,SKC,1.01,VWS V14.01,2013-03-11 03:24:00,
2013-03-10 22:29:00,52.8,51.4,29.77,South,173,3.0,11.0,95,0.00,,SKC,1.01,VWS V14.01,2013-03-11 03:29:00,
2013-03-10 22:34:00,52.8,51.4,29.78,South,170,5.0,7.0,95,0.00,,SKC,1.01,VWS V14.01,2013-03-11 03:34:00,
2013-03-10 22:39:00,52.8,51.4,29.78,SSE,160,5.0,10.0,95,0.00,,SKC,1.01,VWS V14.01,2013-03-11 03:39:00,
2013-03-10 22:44:00,52.9,51.5,29.77,SSE,168,4.0,10.0,95,0.00,,SKC,1.01,VWS V14.01,2013-03-11 03:44:00,
2013-03-10 22:49:00,52.9,51.5,29.77,South,177,0.0,10.0,95,0.00,,SKC,1.01,VWS V14.01,2013-03-11 03:49:00,
2013-03-10 22:54:00,52.9,51.5,29.77,South,172,2.0,10.0,95,0.00,,SKC,1.01,VWS V14.01,2013-03-11 03:54:00,
2013-03-10 22:59:00,52.9,51.5,29.77,South,173,3.0,10.0,95,0.00,,SKC,1.01,VWS V14.01,2013-03-11 03:59:00,
2013-03-10 23:00:00,52.9,51.5,29.77,South,179,2.0,10.0,95,0.00,,SKC,1.01,VWS V14.01,2013-03-11 04:00:00,
2013-03-10 23:01:00,52.9,51.2,29.77,South,179,2.0,10.0,94,0.00,,SKC,1.01,VWS V14.01,2013-03-11 04:01:00,
2013-03-10 23:07:00,52.9,51.2,29.76,South,183,2.0,5.0,94,0.00,,SKC,1.01,VWS V14.01,2013-03-11 04:07:00,
2013-03-10 23:12:00,52.9,51.2,29.76,South,173,1.0,10.0,94,0.00,,SKC,1.01,VWS V14.01,2013-03-11 04:12:00,
2013-03-10 23:17:00,52.9,51.2,29.77,South,175,3.0,10.0,94,0.00,,SKC,1.01,VWS V14.01,2013-03-11 04:17:00,
2013-03-10 23:22:00,52.9,51.2,29.78,South,188,3.0,10.0,94,0.00,,SKC,1.01,VWS V14.01,2013-03-11 04:22:00,
2013-03-10 23:27:00,52.9,51.2,29.77,South,184,2.0,10.0,94,0.00,,SKC,1.01,VWS V14.01,2013-03-11 04:27:00,
2013-03-10 23:32:00,52.9,51.2,29.76,South,175,3.0,10.0,94,0.00,,SKC,1.01,VWS V14.01,2013-03-11 04:32:00,
2013-03-10 23:37:00,52.9,51.2,29.77,WSW,246,3.0,6.0,94,0.00,,SKC,1.01,VWS V14.01,2013-03-11 04:37:00,
2013-03-10 23:42:00,52.0,49.8,29.79,SSW,203,2.0,12.0,92,0.00,,SKC,1.01,VWS V14.01,2013-03-11 04:42:00,
2013-03-10 23:47:00,51.0,48.2,29.79,WSW,249,1.0,12.0,90,0.00,,SKC,1.01,VWS V14.01,2013-03-11 04:47:00,
2013-03-10 23:52:00,50.3,46.9,29.79,SW,227,4.0,12.0,88,0.00,,SKC,1.01,VWS V14.01,2013-03-11 04:52:00,
2013-03-10 23:57:00,49.7,46.0,29.79,SW,235,0.0,12.0,87,0.00,,SKC,1.01,VWS V14.01,2013-03-11 04:57:00,